sensor_id;sensor_type;location;lat;lon;timestamp;temperature;humidity
61092;DHT22;46975;51.898;11.444;2022-12-07T00:02:21;1.90;99.90
61092;DHT22;46975;51.898;11.444;2022-12-07T00:04:48;1.80;99.90
61092;DHT22;46975;51.898;11.444;2022-12-07T00:07:14;1.90;99.90
61092;DHT22;46975;51.898;11.444;2022-12-07T00:09:39;1.90;99.90
61092;DHT22;46975;51.898;11.444;2022-12-07T00:12:06;1.90;99.90
61092;DHT22;46975;51.898;11.444;2022-12-07T00:14:32;1.90;99.90
61092;DHT22;46975;51.898;11.444;2022-12-07T00:16:58;2.00;99.90
61092;DHT22;46975;51.898;11.444;2022-12-07T00:19:23;1.90;99.90
61092;DHT22;46975;51.898;11.444;2022-12-07T00:21:49;1.90;99.90
61092;DHT22;46975;51.898;11.444;2022-12-07T00:24:14;2.00;99.90
61092;DHT22;46975;51.898;11.444;2022-12-07T00:26:40;2.00;99.90
61092;DHT22;46975;51.898;11.444;2022-12-07T00:29:27;2.00;99.90
61092;DHT22;46975;51.898;11.444;2022-12-07T00:31:51;2.00;99.90
61092;DHT22;46975;51.898;11.444;2022-12-07T00:34:18;2.00;99.90
61092;DHT22;46975;51.898;11.444;2022-12-07T00:36:44;2.00;99.90
61092;DHT22;46975;51.898;11.444;2022-12-07T00:39:09;2.00;99.90
61092;DHT22;46975;51.898;11.444;2022-12-07T00:41:35;1.90;99.90
61092;DHT22;46975;51.898;11.444;2022-12-07T00:44:01;1.90;99.90
61092;DHT22;46975;51.898;11.444;2022-12-07T00:46:26;1.90;99.90
61092;DHT22;46975;51.898;11.444;2022-12-07T00:48:52;1.90;99.90
61092;DHT22;46975;51.898;11.444;2022-12-07T00:51:19;1.90;99.90
61092;DHT22;46975;51.898;11.444;2022-12-07T00:53:45;2.00;99.90
61092;DHT22;46975;51.898;11.444;2022-12-07T00:56:12;2.00;99.90
61092;DHT22;46975;51.898;11.444;2022-12-07T00:58:38;2.00;99.90
61092;DHT22;46975;51.898;11.444;2022-12-07T01:01:04;2.10;99.90
61092;DHT22;46975;51.898;11.444;2022-12-07T01:03:30;2.10;99.90
61092;DHT22;46975;51.898;11.444;2022-12-07T01:05:56;2.20;99.90
61092;DHT22;46975;51.898;11.444;2022-12-07T01:08:21;2.20;99.90
61092;DHT22;46975;51.898;11.444;2022-12-07T01:10:47;2.20;99.90
61092;DHT22;46975;51.898;11.444;2022-12-07T01:13:13;2.30;99.90
61092;DHT22;46975;51.898;11.444;2022-12-07T01:15:39;2.30;99.90
61092;DHT22;46975;51.898;11.444;2022-12-07T01:18:05;2.30;99.90
61092;DHT22;46975;51.898;11.444;2022-12-07T01:20:31;2.20;99.90
61092;DHT22;46975;51.898;11.444;2022-12-07T01:22:56;2.30;99.90
61092;DHT22;46975;51.898;11.444;2022-12-07T01:25:22;2.30;99.90
61092;DHT22;46975;51.898;11.444;2022-12-07T01:27:47;2.30;99.90
61092;DHT22;46975;51.898;11.444;2022-12-07T01:30:13;2.30;99.90
61092;DHT22;46975;51.898;11.444;2022-12-07T01:32:38;2.30;99.90
61092;DHT22;46975;51.898;11.444;2022-12-07T01:35:04;2.20;99.90
61092;DHT22;46975;51.898;11.444;2022-12-07T01:37:33;2.30;99.90
61092;DHT22;46975;51.898;11.444;2022-12-07T01:39:59;2.20;99.90
61092;DHT22;46975;51.898;11.444;2022-12-07T01:42:24;2.30;99.90
61092;DHT22;46975;51.898;11.444;2022-12-07T01:47:34;2.30;99.90
61092;DHT22;46975;51.898;11.444;2022-12-07T01:50:01;2.30;99.90
61092;DHT22;46975;51.898;11.444;2022-12-07T01:52:30;2.40;99.90
61092;DHT22;46975;51.898;11.444;2022-12-07T01:55:04;2.40;99.90
61092;DHT22;46975;51.898;11.444;2022-12-07T01:57:30;2.40;99.90
61092;DHT22;46975;51.898;11.444;2022-12-07T01:59:56;2.40;99.90
61092;DHT22;46975;51.898;11.444;2022-12-07T02:02:30;2.40;99.90
61092;DHT22;46975;51.898;11.444;2022-12-07T02:04:57;2.50;99.90
61092;DHT22;46975;51.898;11.444;2022-12-07T02:07:24;2.40;99.90
61092;DHT22;46975;51.898;11.444;2022-12-07T02:09:50;2.40;99.90
61092;DHT22;46975;51.898;11.444;2022-12-07T02:12:15;2.40;99.90
61092;DHT22;46975;51.898;11.444;2022-12-07T02:14:41;2.50;99.90
61092;DHT22;46975;51.898;11.444;2022-12-07T02:17:28;2.50;99.90
61092;DHT22;46975;51.898;11.444;2022-12-07T02:20:07;2.60;99.90
61092;DHT22;46975;51.898;11.444;2022-12-07T02:27:46;2.80;99.90
61092;DHT22;46975;51.898;11.444;2022-12-07T02:30:13;2.90;99.90
61092;DHT22;46975;51.898;11.444;2022-12-07T02:32:56;2.90;99.90
61092;DHT22;46975;51.898;11.444;2022-12-07T02:38:03;2.80;99.90
61092;DHT22;46975;51.898;11.444;2022-12-07T02:40:31;2.80;99.90
61092;DHT22;46975;51.898;11.444;2022-12-07T02:43:07;2.80;99.90
61092;DHT22;46975;51.898;11.444;2022-12-07T02:45:34;2.80;99.90
61092;DHT22;46975;51.898;11.444;2022-12-07T02:48:02;2.80;99.90
61092;DHT22;46975;51.898;11.444;2022-12-07T02:50:28;2.80;99.90
61092;DHT22;46975;51.898;11.444;2022-12-07T02:52:54;2.80;99.90
61092;DHT22;46975;51.898;11.444;2022-12-07T02:55:22;2.80;99.90
61092;DHT22;46975;51.898;11.444;2022-12-07T03:00:23;2.80;99.90
61092;DHT22;46975;51.898;11.444;2022-12-07T03:13:10;3.00;99.90
61092;DHT22;46975;51.898;11.444;2022-12-07T03:15:52;3.00;99.90
61092;DHT22;46975;51.898;11.444;2022-12-07T03:18:20;3.20;99.90
61092;DHT22;46975;51.898;11.444;2022-12-07T03:20:47;3.30;99.90
61092;DHT22;46975;51.898;11.444;2022-12-07T03:23:14;3.50;99.90
61092;DHT22;46975;51.898;11.444;2022-12-07T03:25:42;3.50;99.90
61092;DHT22;46975;51.898;11.444;2022-12-07T03:28:09;3.60;99.90
61092;DHT22;46975;51.898;11.444;2022-12-07T03:33:21;3.60;99.90
61092;DHT22;46975;51.898;11.444;2022-12-07T03:35:56;3.70;99.90
61092;DHT22;46975;51.898;11.444;2022-12-07T03:38:36;3.70;99.90
61092;DHT22;46975;51.898;11.444;2022-12-07T03:41:09;3.70;99.90
61092;DHT22;46975;51.898;11.444;2022-12-07T03:43:38;3.70;99.90
61092;DHT22;46975;51.898;11.444;2022-12-07T03:53:58;3.70;99.90
61092;DHT22;46975;51.898;11.444;2022-12-07T03:56:25;3.70;99.90
61092;DHT22;46975;51.898;11.444;2022-12-07T03:58:51;3.70;99.90
61092;DHT22;46975;51.898;11.444;2022-12-07T04:01:18;3.70;99.90
61092;DHT22;46975;51.898;11.444;2022-12-07T04:03:43;3.80;99.90
61092;DHT22;46975;51.898;11.444;2022-12-07T04:06:09;3.80;99.90
61092;DHT22;46975;51.898;11.444;2022-12-07T04:08:34;3.80;99.90
61092;DHT22;46975;51.898;11.444;2022-12-07T04:11:00;3.90;99.90
61092;DHT22;46975;51.898;11.444;2022-12-07T04:13:26;3.80;99.90
61092;DHT22;46975;51.898;11.444;2022-12-07T04:15:52;3.90;99.90
61092;DHT22;46975;51.898;11.444;2022-12-07T04:18:17;3.80;99.90
61092;DHT22;46975;51.898;11.444;2022-12-07T04:20:43;3.80;99.90
61092;DHT22;46975;51.898;11.444;2022-12-07T04:23:08;3.90;99.90
61092;DHT22;46975;51.898;11.444;2022-12-07T04:25:34;3.90;99.90
61092;DHT22;46975;51.898;11.444;2022-12-07T04:27:59;3.90;99.90
61092;DHT22;46975;51.898;11.444;2022-12-07T04:30:25;3.90;99.90
61092;DHT22;46975;51.898;11.444;2022-12-07T04:32:50;3.90;99.90
61092;DHT22;46975;51.898;11.444;2022-12-07T04:35:16;3.90;99.90
61092;DHT22;46975;51.898;11.444;2022-12-07T04:37:41;4.00;99.90
61092;DHT22;46975;51.898;11.444;2022-12-07T04:40:08;4.00;99.90
61092;DHT22;46975;51.898;11.444;2022-12-07T04:42:35;4.00;99.90
61092;DHT22;46975;51.898;11.444;2022-12-07T04:45:00;4.00;99.90
61092;DHT22;46975;51.898;11.444;2022-12-07T04:47:26;4.10;99.90
61092;DHT22;46975;51.898;11.444;2022-12-07T04:49:52;4.10;99.90
61092;DHT22;46975;51.898;11.444;2022-12-07T04:52:17;4.00;99.90
61092;DHT22;46975;51.898;11.444;2022-12-07T04:54:43;4.00;99.90
61092;DHT22;46975;51.898;11.444;2022-12-07T04:57:08;4.00;99.90
61092;DHT22;46975;51.898;11.444;2022-12-07T04:59:34;4.00;99.90
61092;DHT22;46975;51.898;11.444;2022-12-07T05:01:59;4.10;99.90
61092;DHT22;46975;51.898;11.444;2022-12-07T05:04:25;4.10;99.90
61092;DHT22;46975;51.898;11.444;2022-12-07T05:06:50;4.10;99.90
61092;DHT22;46975;51.898;11.444;2022-12-07T05:09:17;4.00;99.90
61092;DHT22;46975;51.898;11.444;2022-12-07T05:11:42;4.00;99.90
61092;DHT22;46975;51.898;11.444;2022-12-07T05:14:09;3.90;99.90
61092;DHT22;46975;51.898;11.444;2022-12-07T05:16:36;3.90;99.90
61092;DHT22;46975;51.898;11.444;2022-12-07T05:19:01;3.80;99.90
61092;DHT22;46975;51.898;11.444;2022-12-07T05:21:27;3.80;99.90
61092;DHT22;46975;51.898;11.444;2022-12-07T05:23:52;3.80;99.90
61092;DHT22;46975;51.898;11.444;2022-12-07T05:26:18;3.80;99.90
61092;DHT22;46975;51.898;11.444;2022-12-07T05:28:43;3.90;99.90
61092;DHT22;46975;51.898;11.444;2022-12-07T05:31:09;3.90;99.90
61092;DHT22;46975;51.898;11.444;2022-12-07T05:33:35;3.90;99.90
61092;DHT22;46975;51.898;11.444;2022-12-07T05:36:00;3.90;99.90
61092;DHT22;46975;51.898;11.444;2022-12-07T05:38:31;3.80;99.90
61092;DHT22;46975;51.898;11.444;2022-12-07T05:41:02;3.90;99.90
61092;DHT22;46975;51.898;11.444;2022-12-07T05:43:28;3.90;99.90
61092;DHT22;46975;51.898;11.444;2022-12-07T05:45:53;4.00;99.90
61092;DHT22;46975;51.898;11.444;2022-12-07T05:48:19;4.00;99.90
61092;DHT22;46975;51.898;11.444;2022-12-07T05:50:47;4.00;99.90
61092;DHT22;46975;51.898;11.444;2022-12-07T05:53:12;4.00;99.90
61092;DHT22;46975;51.898;11.444;2022-12-07T05:55:38;4.00;99.90
61092;DHT22;46975;51.898;11.444;2022-12-07T05:58:03;4.00;99.90
61092;DHT22;46975;51.898;11.444;2022-12-07T06:00:47;4.00;99.90
61092;DHT22;46975;51.898;11.444;2022-12-07T06:03:13;4.00;99.90
61092;DHT22;46975;51.898;11.444;2022-12-07T06:05:38;4.00;99.90
61092;DHT22;46975;51.898;11.444;2022-12-07T06:08:04;4.00;99.90
61092;DHT22;46975;51.898;11.444;2022-12-07T06:10:29;4.00;99.90
61092;DHT22;46975;51.898;11.444;2022-12-07T06:12:55;4.00;99.90
61092;DHT22;46975;51.898;11.444;2022-12-07T06:15:20;4.00;99.90
61092;DHT22;46975;51.898;11.444;2022-12-07T06:17:48;4.00;99.90
61092;DHT22;46975;51.898;11.444;2022-12-07T06:20:14;3.90;99.90
61092;DHT22;46975;51.898;11.444;2022-12-07T06:22:40;3.80;99.90
61092;DHT22;46975;51.898;11.444;2022-12-07T06:25:06;3.90;99.90
61092;DHT22;46975;51.898;11.444;2022-12-07T06:27:32;3.90;99.90
61092;DHT22;46975;51.898;11.444;2022-12-07T06:29:58;4.00;99.90
61092;DHT22;46975;51.898;11.444;2022-12-07T06:32:23;4.00;99.90
61092;DHT22;46975;51.898;11.444;2022-12-07T06:34:49;3.90;99.90
61092;DHT22;46975;51.898;11.444;2022-12-07T06:37:14;3.90;99.90
61092;DHT22;46975;51.898;11.444;2022-12-07T06:39:40;3.90;99.90
61092;DHT22;46975;51.898;11.444;2022-12-07T06:42:05;4.00;99.90
61092;DHT22;46975;51.898;11.444;2022-12-07T06:44:31;3.90;99.90
61092;DHT22;46975;51.898;11.444;2022-12-07T06:46:57;3.90;99.90
61092;DHT22;46975;51.898;11.444;2022-12-07T06:49:23;3.90;99.90
61092;DHT22;46975;51.898;11.444;2022-12-07T06:51:48;3.90;99.90
61092;DHT22;46975;51.898;11.444;2022-12-07T06:54:14;3.90;99.90
61092;DHT22;46975;51.898;11.444;2022-12-07T06:56:40;3.80;99.90
61092;DHT22;46975;51.898;11.444;2022-12-07T06:59:07;3.80;99.90
61092;DHT22;46975;51.898;11.444;2022-12-07T07:01:33;3.80;99.90
61092;DHT22;46975;51.898;11.444;2022-12-07T07:03:58;3.80;99.90
61092;DHT22;46975;51.898;11.444;2022-12-07T07:06:24;3.70;99.90
61092;DHT22;46975;51.898;11.444;2022-12-07T07:08:50;3.70;99.90
61092;DHT22;46975;51.898;11.444;2022-12-07T07:11:15;3.70;99.90
61092;DHT22;46975;51.898;11.444;2022-12-07T07:13:42;3.80;99.90
61092;DHT22;46975;51.898;11.444;2022-12-07T07:16:07;3.80;99.90
61092;DHT22;46975;51.898;11.444;2022-12-07T07:18:33;3.90;99.90
61092;DHT22;46975;51.898;11.444;2022-12-07T07:20:59;3.90;99.90
61092;DHT22;46975;51.898;11.444;2022-12-07T07:23:24;4.00;99.90
61092;DHT22;46975;51.898;11.444;2022-12-07T07:25:50;4.00;99.90
61092;DHT22;46975;51.898;11.444;2022-12-07T07:28:15;4.10;99.90
61092;DHT22;46975;51.898;11.444;2022-12-07T07:30:41;4.10;99.90
61092;DHT22;46975;51.898;11.444;2022-12-07T07:33:07;4.10;99.90
61092;DHT22;46975;51.898;11.444;2022-12-07T07:35:33;4.10;99.90
61092;DHT22;46975;51.898;11.444;2022-12-07T07:37:58;4.00;99.90
61092;DHT22;46975;51.898;11.444;2022-12-07T07:40:24;4.00;99.90
61092;DHT22;46975;51.898;11.444;2022-12-07T07:42:50;3.90;99.90
61092;DHT22;46975;51.898;11.444;2022-12-07T07:45:16;3.80;99.90
61092;DHT22;46975;51.898;11.444;2022-12-07T07:47:42;3.70;99.90
61092;DHT22;46975;51.898;11.444;2022-12-07T07:50:08;3.60;99.90
61092;DHT22;46975;51.898;11.444;2022-12-07T07:52:33;3.60;99.90
61092;DHT22;46975;51.898;11.444;2022-12-07T07:54:59;3.50;99.90
61092;DHT22;46975;51.898;11.444;2022-12-07T07:57:24;3.30;99.90
61092;DHT22;46975;51.898;11.444;2022-12-07T07:59:51;3.30;99.90
61092;DHT22;46975;51.898;11.444;2022-12-07T08:02:17;3.30;99.90
61092;DHT22;46975;51.898;11.444;2022-12-07T08:04:43;3.30;99.90
61092;DHT22;46975;51.898;11.444;2022-12-07T08:07:09;3.30;99.90
61092;DHT22;46975;51.898;11.444;2022-12-07T08:09:35;3.30;99.90
61092;DHT22;46975;51.898;11.444;2022-12-07T08:12:00;3.30;99.90
61092;DHT22;46975;51.898;11.444;2022-12-07T08:14:26;3.30;99.90
61092;DHT22;46975;51.898;11.444;2022-12-07T08:16:52;3.30;99.90
61092;DHT22;46975;51.898;11.444;2022-12-07T08:19:18;3.30;99.90
61092;DHT22;46975;51.898;11.444;2022-12-07T08:21:44;3.20;99.90
61092;DHT22;46975;51.898;11.444;2022-12-07T08:24:09;3.10;99.90
61092;DHT22;46975;51.898;11.444;2022-12-07T08:26:35;3.10;99.90
61092;DHT22;46975;51.898;11.444;2022-12-07T08:29:00;3.00;99.90
61092;DHT22;46975;51.898;11.444;2022-12-07T08:31:26;3.00;99.90
61092;DHT22;46975;51.898;11.444;2022-12-07T08:33:53;3.00;99.90
61092;DHT22;46975;51.898;11.444;2022-12-07T08:36:18;3.00;99.90
61092;DHT22;46975;51.898;11.444;2022-12-07T08:38:44;3.00;99.90
61092;DHT22;46975;51.898;11.444;2022-12-07T08:41:10;3.10;99.90
61092;DHT22;46975;51.898;11.444;2022-12-07T08:43:35;3.10;99.90
61092;DHT22;46975;51.898;11.444;2022-12-07T08:46:13;3.10;99.90
61092;DHT22;46975;51.898;11.444;2022-12-07T08:48:40;3.10;99.90
61092;DHT22;46975;51.898;11.444;2022-12-07T08:51:06;3.10;99.90
61092;DHT22;46975;51.898;11.444;2022-12-07T08:53:32;3.20;99.90
61092;DHT22;46975;51.898;11.444;2022-12-07T08:55:58;3.20;99.90
61092;DHT22;46975;51.898;11.444;2022-12-07T08:58:24;3.30;99.90
61092;DHT22;46975;51.898;11.444;2022-12-07T09:00:49;3.30;99.90
61092;DHT22;46975;51.898;11.444;2022-12-07T09:03:15;3.30;99.90
61092;DHT22;46975;51.898;11.444;2022-12-07T09:05:41;3.40;99.90
61092;DHT22;46975;51.898;11.444;2022-12-07T09:08:06;3.40;99.90
61092;DHT22;46975;51.898;11.444;2022-12-07T09:10:32;3.40;99.90
61092;DHT22;46975;51.898;11.444;2022-12-07T09:12:58;3.50;99.90
61092;DHT22;46975;51.898;11.444;2022-12-07T09:15:29;3.50;99.90
61092;DHT22;46975;51.898;11.444;2022-12-07T09:17:55;3.60;99.90
61092;DHT22;46975;51.898;11.444;2022-12-07T09:20:21;3.60;99.90
61092;DHT22;46975;51.898;11.444;2022-12-07T09:22:46;3.60;99.90
61092;DHT22;46975;51.898;11.444;2022-12-07T09:25:12;3.70;99.90
61092;DHT22;46975;51.898;11.444;2022-12-07T09:27:38;3.70;99.90
61092;DHT22;46975;51.898;11.444;2022-12-07T09:30:04;3.80;99.90
61092;DHT22;46975;51.898;11.444;2022-12-07T09:32:29;3.90;99.90
61092;DHT22;46975;51.898;11.444;2022-12-07T09:34:55;3.90;99.90
61092;DHT22;46975;51.898;11.444;2022-12-07T09:37:21;4.00;99.90
61092;DHT22;46975;51.898;11.444;2022-12-07T09:39:46;4.00;99.90
61092;DHT22;46975;51.898;11.444;2022-12-07T09:44:56;4.10;99.90
61092;DHT22;46975;51.898;11.444;2022-12-07T09:47:23;4.20;99.90
61092;DHT22;46975;51.898;11.444;2022-12-07T09:49:48;4.20;99.90
61092;DHT22;46975;51.898;11.444;2022-12-07T09:52:19;4.30;99.90
61092;DHT22;46975;51.898;11.444;2022-12-07T09:54:46;4.30;99.90
61092;DHT22;46975;51.898;11.444;2022-12-07T09:57:12;4.40;99.90
61092;DHT22;46975;51.898;11.444;2022-12-07T09:59:38;4.50;99.90
61092;DHT22;46975;51.898;11.444;2022-12-07T10:02:24;4.50;99.90
61092;DHT22;46975;51.898;11.444;2022-12-07T10:04:50;4.50;99.90
61092;DHT22;46975;51.898;11.444;2022-12-07T10:07:16;4.60;99.90
61092;DHT22;46975;51.898;11.444;2022-12-07T10:09:41;4.60;99.90
61092;DHT22;46975;51.898;11.444;2022-12-07T10:12:09;4.70;99.90
61092;DHT22;46975;51.898;11.444;2022-12-07T10:14:38;4.70;99.90
61092;DHT22;46975;51.898;11.444;2022-12-07T10:17:25;4.70;99.90
61092;DHT22;46975;51.898;11.444;2022-12-07T10:19:50;4.70;99.90
61092;DHT22;46975;51.898;11.444;2022-12-07T10:22:16;4.70;99.90
61092;DHT22;46975;51.898;11.444;2022-12-07T10:24:42;4.80;99.90
61092;DHT22;46975;51.898;11.444;2022-12-07T10:27:22;4.80;99.90
61092;DHT22;46975;51.898;11.444;2022-12-07T10:29:51;4.90;99.90
61092;DHT22;46975;51.898;11.444;2022-12-07T10:34:43;5.00;99.90
61092;DHT22;46975;51.898;11.444;2022-12-07T10:39:41;5.00;99.90
61092;DHT22;46975;51.898;11.444;2022-12-07T10:42:09;4.90;99.90
61092;DHT22;46975;51.898;11.444;2022-12-07T10:44:40;4.90;99.90
61092;DHT22;46975;51.898;11.444;2022-12-07T10:52:18;4.80;99.90
61092;DHT22;46975;51.898;11.444;2022-12-07T10:57:33;4.60;99.90
61092;DHT22;46975;51.898;11.444;2022-12-07T11:02:49;4.60;99.90
61092;DHT22;46975;51.898;11.444;2022-12-07T11:10:16;4.50;99.90
61092;DHT22;46975;51.898;11.444;2022-12-07T11:13:27;4.50;99.90
61092;DHT22;46975;51.898;11.444;2022-12-07T11:15:52;4.60;99.90
61092;DHT22;46975;51.898;11.444;2022-12-07T11:18:22;4.60;99.90
61092;DHT22;46975;51.898;11.444;2022-12-07T11:26:01;4.60;99.90
61092;DHT22;46975;51.898;11.444;2022-12-07T11:36:30;4.70;99.90
61092;DHT22;46975;51.898;11.444;2022-12-07T11:38:57;4.70;99.90
61092;DHT22;46975;51.898;11.444;2022-12-07T11:41:27;4.70;99.90
61092;DHT22;46975;51.898;11.444;2022-12-07T11:44:07;4.70;99.90
61092;DHT22;46975;51.898;11.444;2022-12-07T11:46:44;4.80;99.90
61092;DHT22;46975;51.898;11.444;2022-12-07T11:51:38;4.90;99.90
61092;DHT22;46975;51.898;11.444;2022-12-07T11:56:49;5.00;99.90
61092;DHT22;46975;51.898;11.444;2022-12-07T12:01:52;5.10;99.90
61092;DHT22;46975;51.898;11.444;2022-12-07T12:04:23;5.10;99.90
61092;DHT22;46975;51.898;11.444;2022-12-07T12:06:50;4.90;99.90
61092;DHT22;46975;51.898;11.444;2022-12-07T12:09:17;4.90;99.90
61092;DHT22;46975;51.898;11.444;2022-12-07T12:21:49;5.40;99.90
61092;DHT22;46975;51.898;11.444;2022-12-07T12:24:19;5.50;99.90
61092;DHT22;46975;51.898;11.444;2022-12-07T12:26:49;5.40;99.90
61092;DHT22;46975;51.898;11.444;2022-12-07T12:32:04;5.40;99.90
61092;DHT22;46975;51.898;11.444;2022-12-07T12:34:38;5.50;99.90
61092;DHT22;46975;51.898;11.444;2022-12-07T12:37:13;5.50;99.90
61092;DHT22;46975;51.898;11.444;2022-12-07T12:42:43;5.60;99.90
61092;DHT22;46975;51.898;11.444;2022-12-07T12:45:26;5.50;99.90
61092;DHT22;46975;51.898;11.444;2022-12-07T12:48:06;5.50;99.90
61092;DHT22;46975;51.898;11.444;2022-12-07T12:50:49;5.40;99.90
61092;DHT22;46975;51.898;11.444;2022-12-07T12:53:35;5.30;99.90
61092;DHT22;46975;51.898;11.444;2022-12-07T12:58:39;4.90;99.90
61092;DHT22;46975;51.898;11.444;2022-12-07T13:03:54;4.70;99.90
61092;DHT22;46975;51.898;11.444;2022-12-07T13:08:46;4.70;99.90
61092;DHT22;46975;51.898;11.444;2022-12-07T13:11:17;4.80;99.90
61092;DHT22;46975;51.898;11.444;2022-12-07T13:13:44;4.80;99.90
61092;DHT22;46975;51.898;11.444;2022-12-07T13:18:35;5.10;99.90
61092;DHT22;46975;51.898;11.444;2022-12-07T13:26:00;5.00;99.90
61092;DHT22;46975;51.898;11.444;2022-12-07T13:28:32;4.80;99.90
61092;DHT22;46975;51.898;11.444;2022-12-07T13:33:24;4.70;99.90
61092;DHT22;46975;51.898;11.444;2022-12-07T13:35:56;4.80;99.90
61092;DHT22;46975;51.898;11.444;2022-12-07T13:38:23;4.70;99.90
61092;DHT22;46975;51.898;11.444;2022-12-07T13:49:17;4.60;99.90
61092;DHT22;46975;51.898;11.444;2022-12-07T13:51:43;4.60;99.90
61092;DHT22;46975;51.898;11.444;2022-12-07T13:54:09;4.60;99.90
61092;DHT22;46975;51.898;11.444;2022-12-07T13:56:35;4.60;99.90
61092;DHT22;46975;51.898;11.444;2022-12-07T13:59:02;4.60;99.90
61092;DHT22;46975;51.898;11.444;2022-12-07T14:01:30;4.50;99.90
61092;DHT22;46975;51.898;11.444;2022-12-07T14:03:55;4.50;99.90
61092;DHT22;46975;51.898;11.444;2022-12-07T14:06:27;4.50;99.90
61092;DHT22;46975;51.898;11.444;2022-12-07T14:09:09;4.50;99.90
61092;DHT22;46975;51.898;11.444;2022-12-07T14:11:40;4.30;99.90
61092;DHT22;46975;51.898;11.444;2022-12-07T14:14:06;4.30;99.90
61092;DHT22;46975;51.898;11.444;2022-12-07T14:16:38;4.20;99.90
61092;DHT22;46975;51.898;11.444;2022-12-07T14:19:05;4.10;99.90
61092;DHT22;46975;51.898;11.444;2022-12-07T14:21:32;4.00;99.90
61092;DHT22;46975;51.898;11.444;2022-12-07T14:24:17;4.00;99.90
61092;DHT22;46975;51.898;11.444;2022-12-07T14:26:44;3.80;99.90
61092;DHT22;46975;51.898;11.444;2022-12-07T14:29:19;3.80;99.90
61092;DHT22;46975;51.898;11.444;2022-12-07T14:31:45;3.80;99.90
61092;DHT22;46975;51.898;11.444;2022-12-07T14:34:11;3.80;99.90
61092;DHT22;46975;51.898;11.444;2022-12-07T14:36:37;3.80;99.90
61092;DHT22;46975;51.898;11.444;2022-12-07T14:39:03;3.80;99.90
61092;DHT22;46975;51.898;11.444;2022-12-07T14:41:29;3.80;99.90
61092;DHT22;46975;51.898;11.444;2022-12-07T14:44:13;3.70;99.90
61092;DHT22;46975;51.898;11.444;2022-12-07T14:46:39;3.70;99.90
61092;DHT22;46975;51.898;11.444;2022-12-07T14:49:04;3.70;99.90
61092;DHT22;46975;51.898;11.444;2022-12-07T14:51:30;3.70;99.90
61092;DHT22;46975;51.898;11.444;2022-12-07T14:53:56;3.70;99.90
61092;DHT22;46975;51.898;11.444;2022-12-07T14:56:22;3.60;99.90
61092;DHT22;46975;51.898;11.444;2022-12-07T14:58:47;3.60;99.90
61092;DHT22;46975;51.898;11.444;2022-12-07T15:01:13;3.60;99.90
61092;DHT22;46975;51.898;11.444;2022-12-07T15:03:39;3.60;99.90
61092;DHT22;46975;51.898;11.444;2022-12-07T15:06:05;3.60;99.90
61092;DHT22;46975;51.898;11.444;2022-12-07T15:08:31;3.60;99.90
61092;DHT22;46975;51.898;11.444;2022-12-07T15:10:57;3.60;99.90
61092;DHT22;46975;51.898;11.444;2022-12-07T15:13:22;3.60;99.90
61092;DHT22;46975;51.898;11.444;2022-12-07T15:16:13;3.50;99.90
61092;DHT22;46975;51.898;11.444;2022-12-07T15:18:38;3.50;99.90
61092;DHT22;46975;51.898;11.444;2022-12-07T15:21:04;3.50;99.90
61092;DHT22;46975;51.898;11.444;2022-12-07T15:23:29;3.40;99.90
61092;DHT22;46975;51.898;11.444;2022-12-07T15:25:56;3.40;99.90
61092;DHT22;46975;51.898;11.444;2022-12-07T15:28:22;3.40;99.90
61092;DHT22;46975;51.898;11.444;2022-12-07T15:30:47;3.40;99.90
61092;DHT22;46975;51.898;11.444;2022-12-07T15:33:13;3.40;99.90
61092;DHT22;46975;51.898;11.444;2022-12-07T15:35:42;3.30;99.90
61092;DHT22;46975;51.898;11.444;2022-12-07T15:38:08;3.40;99.90
61092;DHT22;46975;51.898;11.444;2022-12-07T15:40:33;3.40;99.90
61092;DHT22;46975;51.898;11.444;2022-12-07T15:43:00;3.50;99.90
61092;DHT22;46975;51.898;11.444;2022-12-07T15:45:25;3.40;99.90
61092;DHT22;46975;51.898;11.444;2022-12-07T15:47:51;3.40;99.90
61092;DHT22;46975;51.898;11.444;2022-12-07T15:50:16;3.40;99.90
61092;DHT22;46975;51.898;11.444;2022-12-07T15:52:42;3.30;99.90
61092;DHT22;46975;51.898;11.444;2022-12-07T15:55:08;3.30;99.90
61092;DHT22;46975;51.898;11.444;2022-12-07T15:57:35;3.30;99.90
61092;DHT22;46975;51.898;11.444;2022-12-07T16:00:02;3.30;99.90
61092;DHT22;46975;51.898;11.444;2022-12-07T16:02:28;3.20;99.90
61092;DHT22;46975;51.898;11.444;2022-12-07T16:04:53;3.20;99.90
61092;DHT22;46975;51.898;11.444;2022-12-07T16:07:19;3.20;99.90
61092;DHT22;46975;51.898;11.444;2022-12-07T16:09:45;3.20;99.90
61092;DHT22;46975;51.898;11.444;2022-12-07T16:12:11;3.20;99.90
61092;DHT22;46975;51.898;11.444;2022-12-07T16:14:38;3.20;99.90
61092;DHT22;46975;51.898;11.444;2022-12-07T16:17:04;3.20;99.90
61092;DHT22;46975;51.898;11.444;2022-12-07T16:19:30;3.20;99.90
61092;DHT22;46975;51.898;11.444;2022-12-07T16:21:55;3.20;99.90
61092;DHT22;46975;51.898;11.444;2022-12-07T16:24:21;3.20;99.90
61092;DHT22;46975;51.898;11.444;2022-12-07T16:26:46;3.10;99.90
61092;DHT22;46975;51.898;11.444;2022-12-07T16:29:12;3.10;99.90
61092;DHT22;46975;51.898;11.444;2022-12-07T16:31:38;3.10;99.90
61092;DHT22;46975;51.898;11.444;2022-12-07T16:34:04;3.10;99.90
61092;DHT22;46975;51.898;11.444;2022-12-07T16:36:29;3.10;99.90
61092;DHT22;46975;51.898;11.444;2022-12-07T16:38:55;3.10;99.90
61092;DHT22;46975;51.898;11.444;2022-12-07T16:41:20;3.20;99.90
61092;DHT22;46975;51.898;11.444;2022-12-07T16:43:46;3.20;99.90
61092;DHT22;46975;51.898;11.444;2022-12-07T16:46:12;3.20;99.90
61092;DHT22;46975;51.898;11.444;2022-12-07T16:48:39;3.20;99.90
61092;DHT22;46975;51.898;11.444;2022-12-07T16:51:05;3.20;99.90
61092;DHT22;46975;51.898;11.444;2022-12-07T16:53:31;3.20;99.90
61092;DHT22;46975;51.898;11.444;2022-12-07T16:55:56;3.20;99.90
61092;DHT22;46975;51.898;11.444;2022-12-07T16:58:22;3.20;99.90
61092;DHT22;46975;51.898;11.444;2022-12-07T17:00:47;3.20;99.90
61092;DHT22;46975;51.898;11.444;2022-12-07T17:03:13;3.20;99.90
61092;DHT22;46975;51.898;11.444;2022-12-07T17:05:40;3.20;99.90
61092;DHT22;46975;51.898;11.444;2022-12-07T17:08:05;3.20;99.90
61092;DHT22;46975;51.898;11.444;2022-12-07T17:10:32;3.20;99.90
61092;DHT22;46975;51.898;11.444;2022-12-07T17:12:58;3.20;99.90
61092;DHT22;46975;51.898;11.444;2022-12-07T17:15:23;3.20;99.90
61092;DHT22;46975;51.898;11.444;2022-12-07T17:17:55;3.20;99.90
61092;DHT22;46975;51.898;11.444;2022-12-07T17:20:21;3.20;99.90
61092;DHT22;46975;51.898;11.444;2022-12-07T17:22:47;3.20;99.90
61092;DHT22;46975;51.898;11.444;2022-12-07T17:25:13;3.30;99.90
61092;DHT22;46975;51.898;11.444;2022-12-07T17:27:39;3.40;99.90
61092;DHT22;46975;51.898;11.444;2022-12-07T17:30:05;3.30;99.90
61092;DHT22;46975;51.898;11.444;2022-12-07T17:32:31;3.40;99.90